createdAt,value
2018-02-24T00:00:07.142Z,4.81
2018-02-24T00:00:55.919Z,4.71
2018-02-24T00:01:45.016Z,4.69
2018-02-24T00:02:34.065Z,4.78
2018-02-24T00:03:23.102Z,4.74
2018-02-24T00:04:12.152Z,4.68
2018-02-24T00:05:01.268Z,4.75
2018-02-24T00:05:50.337Z,4.78
2018-02-24T00:06:39.372Z,4.80
2018-02-24T00:07:28.418Z,4.80
2018-02-24T00:08:17.476Z,4.80
2018-02-24T00:09:06.518Z,4.76
2018-02-24T00:09:55.651Z,4.84
2018-02-24T00:10:44.697Z,4.86
2018-02-24T00:11:33.760Z,4.88
2018-02-24T00:12:22.810Z,4.87
2018-02-24T00:13:11.852Z,4.85
2018-02-24T00:14:00.926Z,4.85
2018-02-24T00:14:49.979Z,4.88
2018-02-24T00:15:39.076Z,4.89
2018-02-24T00:16:28.127Z,4.90
2018-02-24T00:17:17.209Z,4.87
2018-02-24T00:18:06.243Z,4.91
2018-02-24T00:18:55.292Z,4.91
2018-02-24T00:19:44.354Z,4.90
2018-02-24T00:20:33.405Z,4.89
2018-02-24T00:21:22.480Z,4.88
2018-02-24T00:22:11.532Z,4.89
2018-02-24T00:23:00.584Z,4.90
2018-02-24T00:23:49.645Z,4.86
2018-02-24T00:24:38.717Z,4.89
2018-02-24T00:25:27.773Z,4.87
2018-02-24T00:26:16.807Z,4.86
2018-02-24T00:27:06.073Z,4.90
2018-02-24T00:27:55.130Z,4.90
2018-02-24T00:28:44.297Z,4.92
2018-02-24T00:29:33.354Z,4.91
2018-02-24T00:30:22.398Z,4.87
2018-02-24T00:31:13.881Z,4.85
2018-02-24T00:32:03.043Z,4.86
2018-02-24T00:32:52.080Z,4.92
2018-02-24T00:33:41.149Z,4.87
2018-02-24T00:34:30.195Z,4.81
2018-02-24T00:35:19.281Z,4.81
2018-02-24T00:36:08.336Z,4.85
2018-02-24T00:36:57.398Z,4.85
2018-02-24T00:37:46.493Z,4.81
2018-02-24T00:38:35.549Z,4.81
2018-02-24T00:39:24.617Z,4.74
2018-02-24T00:40:13.664Z,4.73
2018-02-24T00:41:02.727Z,4.70
2018-02-24T00:41:51.780Z,4.75
2018-02-24T00:42:40.848Z,4.74
2018-02-24T00:43:30.373Z,4.71
2018-02-24T00:44:19.427Z,4.77
2018-02-24T00:45:08.463Z,4.70
2018-02-24T00:45:57.565Z,4.68
2018-02-24T00:46:46.636Z,4.66
2018-02-24T00:47:35.683Z,4.71
2018-02-24T00:48:24.772Z,4.71
2018-02-24T00:49:13.838Z,4.74
2018-02-24T00:50:02.918Z,4.79
2018-02-24T00:50:51.968Z,4.84
2018-02-24T00:51:41.094Z,4.84
2018-02-24T00:52:30.153Z,4.86
2018-02-24T00:53:19.228Z,4.85
2018-02-24T00:54:08.305Z,4.85
2018-02-24T00:54:57.352Z,4.84
2018-02-24T00:55:46.579Z,4.81
2018-02-24T00:56:35.619Z,4.76
2018-02-24T00:57:24.733Z,4.74
2018-02-24T00:58:13.804Z,4.86
2018-02-24T00:59:02.864Z,4.83
2018-02-24T00:59:51.901Z,4.85
2018-02-24T01:00:40.947Z,4.86
2018-02-24T01:01:30.021Z,4.86
2018-02-24T01:02:19.076Z,4.89
2018-02-24T01:03:08.224Z,4.86
2018-02-24T01:03:57.274Z,4.86
2018-02-24T01:04:46.354Z,4.85
2018-02-24T01:05:35.432Z,4.84
2018-02-24T01:06:24.692Z,4.83
2018-02-24T01:07:13.742Z,4.77
2018-02-24T01:08:02.814Z,4.79
2018-02-24T01:08:52.083Z,4.77
2018-02-24T01:09:41.128Z,4.80
2018-02-24T01:10:30.185Z,4.73
2018-02-24T01:11:19.251Z,4.71
2018-02-24T01:12:08.305Z,4.74
2018-02-24T01:12:57.414Z,4.76
2018-02-24T01:13:46.528Z,4.80
2018-02-24T01:14:35.617Z,4.83
2018-02-24T01:15:24.659Z,4.82
2018-02-24T01:16:13.698Z,4.81
2018-02-24T01:17:02.799Z,4.72
2018-02-24T01:17:51.856Z,4.73
2018-02-24T01:18:40.923Z,4.69
2018-02-24T01:19:30.115Z,4.72
2018-02-24T01:20:19.180Z,4.64
2018-02-24T01:21:08.238Z,4.65
2018-02-24T01:21:57.274Z,4.62
2018-02-24T01:22:46.324Z,4.57
2018-02-24T01:23:35.446Z,4.57
2018-02-24T01:24:24.495Z,4.59
2018-02-24T01:25:14.583Z,4.58
2018-02-24T01:26:03.640Z,4.54
2018-02-24T01:26:52.680Z,4.53
2018-02-24T01:27:41.750Z,4.55
2018-02-24T01:28:30.795Z,4.55
2018-02-24T01:29:19.846Z,4.56
2018-02-24T01:30:08.882Z,4.58
2018-02-24T01:30:57.964Z,4.54
2018-02-24T01:31:47.010Z,4.54
2018-02-24T01:32:36.100Z,4.48
2018-02-24T01:33:25.156Z,4.50
2018-02-24T01:34:14.216Z,4.46
2018-02-24T01:35:03.298Z,4.46
2018-02-24T01:35:52.353Z,4.42
2018-02-24T01:36:41.498Z,4.38
2018-02-24T01:37:30.533Z,4.29
2018-02-24T01:38:19.575Z,4.27
2018-02-24T01:39:08.617Z,4.28
2018-02-24T01:39:57.669Z,4.19
2018-02-24T01:40:46.723Z,4.25
2018-02-24T01:41:35.772Z,4.30
2018-02-24T01:42:25.067Z,4.29
2018-02-24T01:43:14.123Z,4.29
2018-02-24T01:44:03.175Z,4.29
2018-02-24T01:44:52.241Z,4.28
2018-02-24T01:45:41.283Z,4.26
2018-02-24T01:46:30.327Z,4.21
2018-02-24T01:47:19.379Z,4.13
2018-02-24T01:48:08.456Z,4.06
2018-02-24T01:48:57.501Z,4.06
2018-02-24T01:49:46.558Z,4.10
2018-02-24T01:50:41.549Z,4.19
2018-02-24T01:51:30.595Z,4.17
2018-02-24T01:52:19.650Z,4.15
2018-02-24T01:53:11.493Z,4.22
2018-02-24T01:54:00.545Z,4.12
2018-02-24T01:54:49.584Z,4.14
2018-02-24T01:55:38.643Z,4.17
2018-02-24T01:56:27.879Z,4.17
2018-02-24T01:57:16.924Z,4.16
2018-02-24T01:58:05.963Z,4.13
2018-02-24T01:58:54.998Z,4.14
2018-02-24T01:59:44.075Z,4.19
2018-02-24T02:00:33.134Z,4.18
2018-02-24T02:01:22.178Z,4.10
2018-02-24T02:02:11.459Z,4.03
2018-02-24T02:03:00.504Z,4.07
2018-02-24T02:03:49.565Z,4.06
2018-02-24T02:04:38.619Z,4.08
2018-02-24T02:05:27.659Z,4.12
2018-02-24T02:06:16.763Z,4.16
2018-02-24T02:07:05.825Z,4.11
2018-02-24T02:07:54.890Z,4.14
2018-02-24T02:08:43.961Z,4.17
2018-02-24T02:09:33.003Z,4.19
2018-02-24T02:10:22.091Z,4.23
2018-02-24T02:11:11.178Z,4.26
2018-02-24T02:12:00.243Z,4.24
2018-02-24T02:12:49.302Z,4.02
2018-02-24T02:13:38.339Z,3.94
2018-02-24T02:14:27.381Z,3.91
2018-02-24T02:15:16.427Z,3.93
2018-02-24T02:16:05.490Z,3.99
2018-02-24T02:16:54.603Z,3.96
2018-02-24T02:17:44.690Z,4.02
2018-02-24T02:18:33.782Z,4.07
2018-02-24T02:19:22.962Z,4.13
2018-02-24T02:20:12.027Z,4.15
2018-02-24T02:21:01.090Z,4.10
2018-02-24T02:21:50.152Z,4.10
2018-02-24T02:22:39.208Z,4.09
2018-02-24T02:23:28.250Z,4.04
2018-02-24T02:24:17.322Z,4.06
2018-02-24T02:25:06.478Z,4.05
2018-02-24T02:25:55.511Z,4.04
2018-02-24T02:26:44.623Z,3.98
2018-02-24T02:27:33.686Z,4.03
2018-02-24T02:28:22.734Z,4.01
2018-02-24T02:29:11.772Z,4.04
2018-02-24T02:30:00.814Z,4.05
2018-02-24T02:30:49.900Z,4.09
2018-02-24T02:31:38.954Z,4.13
2018-02-24T02:32:29.070Z,4.08
2018-02-24T02:33:18.117Z,4.14
2018-02-24T02:34:07.157Z,4.19
2018-02-24T02:34:56.232Z,4.22
2018-02-24T02:35:45.296Z,4.17
2018-02-24T02:36:34.343Z,4.19
2018-02-24T02:37:23.392Z,4.27
2018-02-24T02:38:12.626Z,4.28
2018-02-24T02:39:01.679Z,4.28
2018-02-24T02:39:50.741Z,4.23
2018-02-24T02:40:39.771Z,4.22
2018-02-24T02:41:28.828Z,4.20
2018-02-24T02:42:17.889Z,4.23
2018-02-24T02:43:06.930Z,4.15
2018-02-24T02:43:56.003Z,4.08
2018-02-24T02:44:45.113Z,4.08
2018-02-24T02:45:34.195Z,4.04
2018-02-24T02:46:23.284Z,4.01
2018-02-24T02:47:12.333Z,3.96
2018-02-24T02:48:01.388Z,3.98
2018-02-24T02:48:50.432Z,3.96
2018-02-24T02:49:39.522Z,3.94
2018-02-24T02:50:28.560Z,3.75
2018-02-24T02:51:17.621Z,3.68
2018-02-24T02:52:06.662Z,3.60
2018-02-24T02:52:55.695Z,3.63
2018-02-24T02:53:44.758Z,3.48
2018-02-24T02:54:33.816Z,3.59
2018-02-24T02:55:22.998Z,3.79
2018-02-24T02:56:12.056Z,3.86
2018-02-24T02:57:01.111Z,3.90
2018-02-24T02:57:50.161Z,3.85
2018-02-24T02:58:39.219Z,3.78
2018-02-24T02:59:28.290Z,3.75
2018-02-24T03:00:17.345Z,3.75
2018-02-24T03:01:07.667Z,3.76
2018-02-24T03:01:56.709Z,3.65
2018-02-24T03:02:45.777Z,3.60
2018-02-24T03:03:34.835Z,3.49
2018-02-24T03:04:23.920Z,3.51
2018-02-24T03:05:13.033Z,3.51
2018-02-24T03:06:02.084Z,3.55
2018-02-24T03:06:51.161Z,3.56
2018-02-24T03:07:40.228Z,3.64
2018-02-24T03:08:29.279Z,3.74
2018-02-24T03:09:18.342Z,3.76
2018-02-24T03:10:07.401Z,3.76
2018-02-24T03:10:56.443Z,3.79
2018-02-24T03:11:45.492Z,3.77
2018-02-24T03:12:34.588Z,3.71
2018-02-24T03:13:23.639Z,3.76
2018-02-24T03:14:12.722Z,3.79
2018-02-24T03:15:01.773Z,3.81
2018-02-24T03:15:50.821Z,3.81
2018-02-24T03:16:40.145Z,3.79
2018-02-24T03:17:29.183Z,3.86
2018-02-24T03:18:18.248Z,3.86
2018-02-24T03:19:07.276Z,3.79
2018-02-24T03:19:56.330Z,3.82
2018-02-24T03:20:45.367Z,3.82
2018-02-24T03:21:34.417Z,3.79
2018-02-24T03:22:23.571Z,3.79
2018-02-24T03:23:12.624Z,3.74
2018-02-24T03:24:01.672Z,3.73
2018-02-24T03:24:50.732Z,3.71
2018-02-24T03:25:39.784Z,3.73
2018-02-24T03:26:28.836Z,3.69
2018-02-24T03:27:17.891Z,3.68
2018-02-24T03:28:07.049Z,3.64
2018-02-24T03:28:56.114Z,3.61
2018-02-24T03:29:45.179Z,3.65
2018-02-24T03:30:34.238Z,3.62
2018-02-24T03:31:23.294Z,3.78
2018-02-24T03:32:12.351Z,3.75
2018-02-24T03:33:01.430Z,3.78
2018-02-24T03:33:50.506Z,3.80
2018-02-24T03:34:39.538Z,3.83
2018-02-24T03:35:28.602Z,3.80
2018-02-24T03:36:17.659Z,3.75
2018-02-24T03:37:06.705Z,3.77
2018-02-24T03:37:55.757Z,3.79
2018-02-24T03:38:44.794Z,3.79
2018-02-24T03:39:34.080Z,3.74
2018-02-24T03:40:23.149Z,3.69
2018-02-24T03:41:13.141Z,3.72
2018-02-24T03:42:02.226Z,3.68
2018-02-24T03:42:51.283Z,3.69
2018-02-24T03:43:40.346Z,3.65
2018-02-24T03:44:29.404Z,3.63
2018-02-24T03:45:18.501Z,3.62
2018-02-24T03:46:09.496Z,3.64
2018-02-24T03:46:58.528Z,3.63
2018-02-24T03:47:47.595Z,3.67
2018-02-24T03:48:36.646Z,3.64
2018-02-24T03:49:25.728Z,3.64
2018-02-24T03:50:14.785Z,3.60
2018-02-24T03:51:04.066Z,3.64
2018-02-24T03:51:53.179Z,3.62
2018-02-24T03:52:42.242Z,3.62
2018-02-24T03:53:31.307Z,3.59
2018-02-24T03:54:20.376Z,3.56
2018-02-24T03:55:09.429Z,3.54
2018-02-24T03:55:58.503Z,3.52
2018-02-24T03:56:47.572Z,3.50
2018-02-24T03:57:36.914Z,3.52
2018-02-24T03:58:25.986Z,3.49
2018-02-24T03:59:15.155Z,3.47
2018-02-24T04:00:04.237Z,3.40
2018-02-24T04:00:53.292Z,3.27
2018-02-24T04:01:42.359Z,3.33
2018-02-24T04:02:31.411Z,3.15
2018-02-24T04:03:20.450Z,3.03
2018-02-24T04:04:09.491Z,2.93
2018-02-24T04:04:58.603Z,2.93
2018-02-24T04:05:47.674Z,2.81
2018-02-24T04:06:36.706Z,2.70
2018-02-24T04:07:25.817Z,2.65
2018-02-24T04:08:14.938Z,2.72
2018-02-24T04:09:04.035Z,2.71
2018-02-24T04:09:53.114Z,2.78
2018-02-24T04:10:42.150Z,2.66
2018-02-24T04:11:31.225Z,2.52
2018-02-24T04:12:20.285Z,2.43
2018-02-24T04:13:09.571Z,2.33
2018-02-24T04:13:58.632Z,2.32
2018-02-24T04:14:47.679Z,2.31
2018-02-24T04:15:36.851Z,2.31
2018-02-24T04:16:26.003Z,2.31
2018-02-24T04:17:15.009Z,2.29
2018-02-24T04:18:04.061Z,2.24
2018-02-24T04:18:56.274Z,2.23
2018-02-24T04:19:45.339Z,2.27
2018-02-24T04:20:34.397Z,2.42
2018-02-24T04:21:23.484Z,2.44
2018-02-24T04:22:12.599Z,2.49
2018-02-24T04:23:01.665Z,2.59
2018-02-24T04:23:50.716Z,2.57
2018-02-24T04:24:39.750Z,2.58
2018-02-24T04:25:28.782Z,2.65
2018-02-24T04:26:17.824Z,2.64
2018-02-24T04:27:06.876Z,2.62
2018-02-24T04:27:55.976Z,2.50
2018-02-24T04:28:45.028Z,2.57
2018-02-24T04:29:34.076Z,2.56
2018-02-24T04:30:23.174Z,2.55
2018-02-24T04:31:12.470Z,2.59
2018-02-24T04:32:01.513Z,2.60
2018-02-24T04:32:50.554Z,2.76
2018-02-24T04:33:39.613Z,2.79
2018-02-24T04:34:28.660Z,2.72
2018-02-24T04:35:17.707Z,2.74
2018-02-24T04:36:06.846Z,2.75
2018-02-24T04:36:55.883Z,2.77
2018-02-24T04:37:44.942Z,2.82
2018-02-24T04:38:34.018Z,2.70
2018-02-24T04:39:23.060Z,2.65
2018-02-24T04:40:12.105Z,2.68
2018-02-24T04:41:01.158Z,2.68
2018-02-24T04:41:50.269Z,2.72
2018-02-24T04:42:39.330Z,2.77
2018-02-24T04:43:28.386Z,2.88
2018-02-24T04:44:17.677Z,3.01
2018-02-24T04:52:03.120Z,2.65
2018-02-24T04:52:52.167Z,2.70
2018-02-24T04:53:41.210Z,2.75
2018-02-24T04:54:30.253Z,2.58
2018-02-24T04:55:19.308Z,2.51
2018-02-24T04:56:08.353Z,2.57
2018-02-24T04:56:57.394Z,2.68
2018-02-24T04:57:46.491Z,2.76
2018-02-24T04:58:35.539Z,2.79
2018-02-24T04:59:24.585Z,2.86
2018-02-24T05:00:13.623Z,3.01
2018-02-24T05:01:02.673Z,3.10
2018-02-24T05:01:51.719Z,3.13
2018-02-24T05:02:40.771Z,3.17
2018-02-24T05:03:29.838Z,3.06
2018-02-24T05:04:18.872Z,3.16
2018-02-24T05:05:07.921Z,3.20
2018-02-24T05:05:56.968Z,3.14
2018-02-24T05:06:46.033Z,3.03
2018-02-24T05:07:35.083Z,2.89
2018-02-24T05:08:24.122Z,2.81
2018-02-24T05:09:13.516Z,2.62
2018-02-24T05:10:02.605Z,2.56
2018-02-24T05:10:51.778Z,2.54
2018-02-24T05:11:40.833Z,2.61
2018-02-24T05:12:29.897Z,2.72
2018-02-24T05:13:18.943Z,2.82
2018-02-24T05:14:08.007Z,2.81
2018-02-24T05:14:57.075Z,2.86
2018-02-24T05:15:46.127Z,2.84
2018-02-24T05:16:35.230Z,2.87
2018-02-24T05:17:24.309Z,2.78
2018-02-24T05:18:13.358Z,2.71
2018-02-24T05:19:02.568Z,2.68
2018-02-24T05:19:51.636Z,2.65
2018-02-24T05:20:40.728Z,2.60
2018-02-24T05:21:29.779Z,2.59
2018-02-24T05:22:18.915Z,2.55
2018-02-24T05:23:07.979Z,2.54
2018-02-24T05:23:57.050Z,2.62
2018-02-24T05:24:46.126Z,2.56
2018-02-24T05:25:35.169Z,2.51
2018-02-24T05:26:24.230Z,2.46
2018-02-24T05:27:13.307Z,2.43
2018-02-24T05:28:02.479Z,2.34
2018-02-24T05:28:51.542Z,2.33
2018-02-24T05:29:40.623Z,2.32
2018-02-24T05:30:29.679Z,2.32
2018-02-24T05:31:18.757Z,2.33
2018-02-24T05:32:07.815Z,2.39
2018-02-24T05:32:56.868Z,2.52
2018-02-24T05:33:46.170Z,2.63
2018-02-24T05:34:35.239Z,2.70
2018-02-24T05:35:24.305Z,2.78
2018-02-24T05:36:13.355Z,2.84
2018-02-24T05:37:02.433Z,2.95
2018-02-24T05:37:51.489Z,3.06
2018-02-24T05:38:40.527Z,3.12
2018-02-24T05:39:29.647Z,3.28
2018-02-24T05:40:18.701Z,3.42
2018-02-24T05:41:07.754Z,3.43
2018-02-24T05:41:56.853Z,3.40
2018-02-24T05:42:45.910Z,3.46
2018-02-24T05:43:34.953Z,3.57
2018-02-24T05:44:24.020Z,3.58
2018-02-24T05:45:13.097Z,3.64
2018-02-24T05:46:02.170Z,3.71
2018-02-24T05:46:51.228Z,3.72
2018-02-24T05:47:40.373Z,3.69
2018-02-24T05:48:29.648Z,3.74
2018-02-24T05:49:18.698Z,3.63
2018-02-24T05:50:07.748Z,3.59
2018-02-24T05:50:56.796Z,3.57
2018-02-24T05:51:46.520Z,3.66
2018-02-24T05:52:35.581Z,3.62
2018-02-24T05:53:24.675Z,3.68
2018-02-24T05:54:13.726Z,3.71
2018-02-24T05:55:02.772Z,3.77
2018-02-24T05:55:51.814Z,3.76
2018-02-24T05:56:40.864Z,3.76
2018-02-24T05:57:29.921Z,3.81
2018-02-24T05:58:18.976Z,3.81
2018-02-24T05:59:08.240Z,3.60
2018-02-24T05:59:57.291Z,3.68
2018-02-24T06:00:46.526Z,3.73
2018-02-24T06:01:36.190Z,3.77
2018-02-24T06:02:26.064Z,3.85
2018-02-24T06:03:15.172Z,3.86
2018-02-24T06:04:04.566Z,3.92
2018-02-24T06:04:53.684Z,4.00
2018-02-24T06:05:42.769Z,4.05
2018-02-24T06:06:32.005Z,4.04
2018-02-24T06:07:21.101Z,4.00
2018-02-24T06:08:10.475Z,4.02
2018-02-24T06:08:59.535Z,4.08
2018-02-24T06:09:48.582Z,4.12
2018-02-24T06:10:37.664Z,4.11
2018-02-24T06:11:26.754Z,4.17
2018-02-24T06:12:15.831Z,4.13
2018-02-24T06:13:04.920Z,4.15
2018-02-24T06:13:54.279Z,4.18
2018-02-24T06:14:43.362Z,4.24
2018-02-24T06:15:32.414Z,4.28
2018-02-24T06:16:21.468Z,4.37
2018-02-24T06:17:10.528Z,4.35
2018-02-24T06:17:59.580Z,4.38
2018-02-24T06:18:48.621Z,4.35
2018-02-24T06:19:37.663Z,4.40
2018-02-24T06:20:26.931Z,4.52
2018-02-24T06:21:16.000Z,4.57
2018-02-24T06:22:05.093Z,4.59
2018-02-24T06:22:54.144Z,4.69
2018-02-24T06:23:43.182Z,4.73
2018-02-24T06:24:32.222Z,4.78
2018-02-24T06:25:21.363Z,4.86
2018-02-24T06:26:11.173Z,4.92
2018-02-24T06:27:00.416Z,4.95
2018-02-24T06:27:49.637Z,5.00
2018-02-24T06:28:38.706Z,4.98
2018-02-24T06:29:27.769Z,4.71
2018-02-24T06:30:16.836Z,4.68
2018-02-24T06:31:05.908Z,4.56
2018-02-24T06:31:54.980Z,4.46
2018-02-24T06:32:44.031Z,4.44
2018-02-24T06:33:33.134Z,4.43
2018-02-24T06:34:22.195Z,4.31
2018-02-24T06:35:11.262Z,4.31
2018-02-24T06:36:00.338Z,4.45
2018-02-24T06:36:49.499Z,4.44
2018-02-24T06:37:39.478Z,4.59
2018-02-24T06:38:28.556Z,4.63
2018-02-24T06:39:17.635Z,4.79
2018-02-24T06:40:06.712Z,4.91
2018-02-24T06:40:55.786Z,4.86
2018-02-24T06:41:44.848Z,4.77
2018-02-24T06:42:33.910Z,4.81
2018-02-24T06:43:23.061Z,4.90
2018-02-24T06:44:12.120Z,4.93
2018-02-24T06:45:01.208Z,5.00
2018-02-24T06:45:50.270Z,5.19
2018-02-24T06:46:39.538Z,5.28
2018-02-24T06:47:30.993Z,5.43
2018-02-24T06:48:20.090Z,5.52
2018-02-24T06:49:09.404Z,5.67
2018-02-24T06:49:58.515Z,5.76
2018-02-24T06:50:47.661Z,5.79
2018-02-24T06:51:36.761Z,5.89
2018-02-24T06:52:25.835Z,5.92
2018-02-24T06:53:14.921Z,5.72
2018-02-24T06:54:04.214Z,5.60
2018-02-24T06:54:53.295Z,5.45
2018-02-24T06:55:42.385Z,5.39
2018-02-24T06:56:31.469Z,5.36
2018-02-24T06:57:20.553Z,5.41
2018-02-24T06:58:09.612Z,5.54
2018-02-24T06:58:58.663Z,5.71
2018-02-24T06:59:47.725Z,5.85
2018-02-24T07:00:36.801Z,5.92
2018-02-24T07:01:25.946Z,6.07
2018-02-24T07:02:15.014Z,6.27
2018-02-24T07:03:04.080Z,6.40
2018-02-24T07:03:53.163Z,6.55
2018-02-24T07:04:42.537Z,6.66
2018-02-24T07:05:31.695Z,6.70
2018-02-24T07:06:20.797Z,6.75
2018-02-24T07:07:09.890Z,6.91
2018-02-24T07:07:58.950Z,6.93
2018-02-24T07:08:48.005Z,6.98
2018-02-24T07:09:37.057Z,7.05
2018-02-24T07:10:26.100Z,7.13
2018-02-24T07:11:15.222Z,7.08
2018-02-24T07:12:04.382Z,6.92
2018-02-24T07:15:42.020Z,6.94
2018-02-24T07:16:31.075Z,6.90
2018-02-24T07:17:20.198Z,6.79
2018-02-24T07:18:09.585Z,6.73
2018-02-24T07:18:58.654Z,6.22
2018-02-24T07:19:47.694Z,6.41
2018-02-24T07:20:36.757Z,6.50
2018-02-24T07:21:25.789Z,6.54
2018-02-24T07:22:14.830Z,6.58
2018-02-24T07:23:04.103Z,6.73
2018-02-24T07:23:53.167Z,6.84
2018-02-24T07:24:42.230Z,6.92
2018-02-24T07:25:31.297Z,7.00
2018-02-24T07:26:20.363Z,7.16
2018-02-24T07:27:09.402Z,7.28
2018-02-24T07:27:58.479Z,7.39
2018-02-24T07:28:47.635Z,7.58
2018-02-24T07:29:36.706Z,7.65
2018-02-24T07:30:25.756Z,7.73
2018-02-24T07:31:14.822Z,7.82
2018-02-24T07:32:06.843Z,7.92
2018-02-24T07:32:56.424Z,7.94
2018-02-24T07:33:48.815Z,7.84
2018-02-24T07:34:39.987Z,7.88
2018-02-24T07:35:29.463Z,7.69
2018-02-24T07:36:18.524Z,7.69
2018-02-24T07:37:07.571Z,7.75
2018-02-24T07:37:56.648Z,7.78
2018-02-24T07:38:45.751Z,7.87
2018-02-24T07:39:35.887Z,7.91
2018-02-24T07:40:26.425Z,7.99
2018-02-24T07:41:19.290Z,7.94
2018-02-24T07:42:12.824Z,8.07
2018-02-24T07:43:05.155Z,8.12
2018-02-24T07:43:57.657Z,8.16
2018-02-24T07:44:51.024Z,8.05
2018-02-24T07:45:40.311Z,8.02
2018-02-24T07:46:29.475Z,8.08
2018-02-24T07:47:18.620Z,8.07
2018-02-24T07:48:07.711Z,8.08
2018-02-24T07:48:57.060Z,8.02
2018-02-24T07:49:46.154Z,8.10
2018-02-24T07:50:35.292Z,7.97
2018-02-24T07:51:24.424Z,7.82
2018-02-24T07:52:13.574Z,7.79
2018-02-24T07:53:02.652Z,7.79
2018-02-24T07:53:51.724Z,7.27
2018-02-24T07:54:40.804Z,7.16
2018-02-24T07:55:29.905Z,7.13
2018-02-24T07:56:19.129Z,7.19
2018-02-24T07:57:08.238Z,7.20
2018-02-24T07:57:57.363Z,7.32
2018-02-24T07:58:46.461Z,7.34
2018-02-24T07:59:35.570Z,7.43
2018-02-24T08:00:24.685Z,7.38
2018-02-24T08:01:13.765Z,7.45
2018-02-24T08:02:03.262Z,7.52
2018-02-24T08:02:52.409Z,7.43
2018-02-24T08:03:41.542Z,7.08
2018-02-24T08:04:30.661Z,7.07
2018-02-24T08:05:19.782Z,7.12
2018-02-24T08:06:08.864Z,7.14
2018-02-24T08:06:57.987Z,7.27
2018-02-24T08:07:47.261Z,7.39
2018-02-24T08:08:36.388Z,7.52
2018-02-24T08:09:25.490Z,7.36
2018-02-24T08:10:14.569Z,7.06
2018-02-24T08:11:03.683Z,7.18
2018-02-24T08:11:52.745Z,7.31
2018-02-24T08:12:41.849Z,7.38
2018-02-24T08:13:30.987Z,7.48
2018-02-24T08:14:20.106Z,7.61
2018-02-24T08:15:09.201Z,7.52
2018-02-24T08:15:58.351Z,7.57
2018-02-24T08:16:47.489Z,7.67
2018-02-24T08:17:36.592Z,7.69
2018-02-24T08:18:25.770Z,7.53
2018-02-24T08:19:14.859Z,7.34
2018-02-24T08:20:03.942Z,7.57
2018-02-24T08:20:53.035Z,7.43
2018-02-24T08:21:42.144Z,7.18
2018-02-24T08:22:31.238Z,7.38
2018-02-24T08:23:20.340Z,7.34
2018-02-24T08:24:09.805Z,7.45
2018-02-24T08:24:59.076Z,7.59
2018-02-24T08:25:48.364Z,7.75
2018-02-24T08:26:37.575Z,7.91
2018-02-24T08:27:26.690Z,8.06
2018-02-24T08:28:15.820Z,8.19
2018-02-24T08:29:04.902Z,8.32
2018-02-24T08:29:54.040Z,8.24
2018-02-24T08:30:43.124Z,8.38
2018-02-24T08:31:32.225Z,8.36
2018-02-24T08:32:21.357Z,8.47
2018-02-24T08:33:10.433Z,8.55
2018-02-24T08:33:59.578Z,8.65
2018-02-24T08:34:48.672Z,8.62
2018-02-24T08:35:37.763Z,8.39
2018-02-24T08:36:26.870Z,8.21
2018-02-24T08:37:15.932Z,8.15
2018-02-24T08:38:05.050Z,8.20
2018-02-24T08:38:54.165Z,8.39
2018-02-24T08:39:43.263Z,8.19
2018-02-24T08:40:32.351Z,7.98
2018-02-24T08:41:23.266Z,8.01
2018-02-24T08:42:12.441Z,8.09
2018-02-24T08:43:01.541Z,8.21
2018-02-24T08:43:51.554Z,8.02
2018-02-24T08:44:40.684Z,8.08
2018-02-24T08:45:29.784Z,8.20
2018-02-24T08:46:18.882Z,8.08
2018-02-24T08:47:08.085Z,8.05
2018-02-24T08:47:58.898Z,8.20
2018-02-24T08:48:48.009Z,8.18
2018-02-24T08:49:37.084Z,8.30
2018-02-24T08:50:26.150Z,8.37
2018-02-24T08:51:15.265Z,8.46
2018-02-24T08:52:04.328Z,8.45
2018-02-24T08:52:53.471Z,8.44
2018-02-24T08:53:42.575Z,8.43
2018-02-24T08:54:31.657Z,8.34
2018-02-24T08:55:20.778Z,8.33
2018-02-24T08:56:09.853Z,8.41
2018-02-24T08:56:58.999Z,8.39
2018-02-24T08:57:48.133Z,8.46
2018-02-24T08:58:37.272Z,8.52
2018-02-24T08:59:26.501Z,8.51
2018-02-24T09:00:15.484Z,8.47
2018-02-24T09:01:04.554Z,8.63
2018-02-24T09:01:53.681Z,8.68
2018-02-24T09:02:42.757Z,8.62
2018-02-24T09:03:31.992Z,8.54
2018-02-24T09:04:21.402Z,8.38
2018-02-24T09:05:10.552Z,8.42
2018-02-24T09:05:59.647Z,8.46
2018-02-24T09:06:48.716Z,8.52
2018-02-24T09:07:37.829Z,8.63
2018-02-24T09:08:26.989Z,8.62
2018-02-24T09:09:16.044Z,8.75
2018-02-24T09:10:06.159Z,8.77
2018-02-24T09:10:55.328Z,8.79
2018-02-24T09:11:44.512Z,8.78
2018-02-24T09:12:33.568Z,8.84
2018-02-24T09:13:22.666Z,8.71
2018-02-24T09:14:11.734Z,8.58
2018-02-24T09:15:00.888Z,8.56
2018-02-24T09:15:50.199Z,8.67
2018-02-24T09:16:39.254Z,8.53
2018-02-24T09:17:28.379Z,8.41
2018-02-24T09:18:17.464Z,8.22
2018-02-24T09:19:06.685Z,8.37
2018-02-24T09:19:58.886Z,8.66
2018-02-24T09:20:48.030Z,8.70
2018-02-24T09:21:37.122Z,8.83
2018-02-24T09:22:26.204Z,8.87
2018-02-24T09:23:15.534Z,8.78
2018-02-24T09:24:04.893Z,8.88
2018-02-24T09:24:54.057Z,8.94
2018-02-24T09:25:43.214Z,8.91
2018-02-24T09:26:32.395Z,9.06
2018-02-24T09:27:21.863Z,9.08
2018-02-24T09:28:10.960Z,8.93
2018-02-24T09:29:00.061Z,8.87
2018-02-24T09:29:49.125Z,8.92
2018-02-24T09:30:38.190Z,8.85
2018-02-24T09:31:27.278Z,8.83
2018-02-24T09:32:16.503Z,8.86
2018-02-24T09:33:05.701Z,8.97
2018-02-24T09:33:54.850Z,8.69
2018-02-24T09:34:43.962Z,8.52
2018-02-24T09:35:33.054Z,8.21
2018-02-24T09:36:22.120Z,8.02
2018-02-24T09:37:11.225Z,8.12
2018-02-24T09:38:00.335Z,8.12
2018-02-24T09:38:49.570Z,8.23
2018-02-24T09:39:38.656Z,8.37
2018-02-24T09:40:27.760Z,8.50
2018-02-24T09:41:16.896Z,8.63
2018-02-24T09:42:06.029Z,8.72
2018-02-24T09:42:55.110Z,8.75
2018-02-24T09:43:44.190Z,8.89
2018-02-24T09:44:33.502Z,8.84
2018-02-24T09:45:22.625Z,8.85
2018-02-24T09:46:11.718Z,8.24
2018-02-24T09:47:00.867Z,8.05
2018-02-24T09:47:49.949Z,7.94
2018-02-24T09:48:39.034Z,7.72
2018-02-24T09:49:28.122Z,7.87
2018-02-24T09:50:17.225Z,8.01
2018-02-24T09:51:06.402Z,7.86
2018-02-24T09:51:55.492Z,7.78
2018-02-24T09:52:44.790Z,7.78
2018-02-24T09:53:33.943Z,7.59
2018-02-24T09:54:23.079Z,7.48
2018-02-24T09:55:20.251Z,7.66
2018-02-24T09:56:12.806Z,7.89
2018-02-24T09:57:02.089Z,8.04
2018-02-24T09:57:51.141Z,8.16
2018-02-24T09:58:40.257Z,8.31
2018-02-24T09:59:29.353Z,8.13
2018-02-24T10:00:20.956Z,8.13
2018-02-24T10:01:13.924Z,8.13
2018-02-24T10:02:03.315Z,8.37
2018-02-24T10:02:52.365Z,8.12
2018-02-24T10:03:41.503Z,8.31
2018-02-24T10:04:30.610Z,8.36
2018-02-24T10:05:19.718Z,8.26
2018-02-24T10:06:08.791Z,8.33
2018-02-24T10:06:57.903Z,8.34
2018-02-24T10:07:47.029Z,8.22
2018-02-24T10:08:36.252Z,8.31
2018-02-24T10:09:25.325Z,8.29
2018-02-24T10:10:14.441Z,8.37
2018-02-24T10:11:03.598Z,8.27
2018-02-24T10:11:52.687Z,8.34
2018-02-24T10:12:41.878Z,8.25
2018-02-24T10:13:30.963Z,8.43
2018-02-24T10:14:20.407Z,8.32
2018-02-24T10:15:11.272Z,8.39
2018-02-24T10:16:00.354Z,8.10
2018-02-24T10:16:49.452Z,7.98
2018-02-24T10:17:38.524Z,8.15
2018-02-24T10:18:27.973Z,8.31
2018-02-24T10:19:17.325Z,8.42
2018-02-24T10:20:06.420Z,8.48
2018-02-24T10:20:55.610Z,8.50
2018-02-24T10:21:44.710Z,8.29
2018-02-24T10:22:33.864Z,8.05
2018-02-24T10:23:22.963Z,8.24
2018-02-24T10:24:12.023Z,8.39
2018-02-24T10:25:01.230Z,8.66
2018-02-24T10:25:50.262Z,8.61
2018-02-24T10:26:39.362Z,8.73
2018-02-24T10:27:28.524Z,8.65
2018-02-24T10:28:17.811Z,8.59
2018-02-24T10:29:06.963Z,8.64
2018-02-24T10:29:56.105Z,8.72
2018-02-24T10:30:45.199Z,8.24
2018-02-24T10:31:34.284Z,8.05
2018-02-24T10:32:23.408Z,8.10
2018-02-24T10:33:12.489Z,8.13
2018-02-24T10:34:01.632Z,8.22
2018-02-24T10:34:50.909Z,8.28
2018-02-24T10:35:40.088Z,8.43
2018-02-24T10:36:29.178Z,8.57
2018-02-24T10:37:18.258Z,8.53
2018-02-24T10:38:07.329Z,8.46
2018-02-24T10:38:56.384Z,8.59
2018-02-24T10:39:45.468Z,8.68
2018-02-24T10:40:34.562Z,8.84
2018-02-24T10:41:23.671Z,8.99
2018-02-24T10:42:12.742Z,8.94
2018-02-24T10:43:01.810Z,8.99
2018-02-24T10:43:50.904Z,9.09
2018-02-24T10:44:39.981Z,9.18
2018-02-24T10:45:29.066Z,8.96
2018-02-24T10:46:18.169Z,9.14
2018-02-24T10:47:07.281Z,9.13
2018-02-24T10:47:56.373Z,9.10
2018-02-24T10:48:45.475Z,9.20
2018-02-24T10:49:34.586Z,9.28
2018-02-24T10:50:23.639Z,9.42
2018-02-24T10:51:12.836Z,9.45
2018-02-24T10:52:01.935Z,9.54
2018-02-24T10:52:51.052Z,9.51
2018-02-24T10:53:40.169Z,9.53
2018-02-24T10:54:29.230Z,9.39
2018-02-24T10:55:18.299Z,9.42
2018-02-24T10:56:07.359Z,9.54
2018-02-24T10:56:56.519Z,9.63
2018-02-24T10:57:45.607Z,9.67
2018-02-24T10:58:34.701Z,9.57
2018-02-24T10:59:23.787Z,9.37
2018-02-24T11:00:12.857Z,9.49
2018-02-24T11:01:01.955Z,9.51
2018-02-24T11:01:51.063Z,9.48
2018-02-24T11:02:40.566Z,9.47
2018-02-24T11:03:29.689Z,9.51
2018-02-24T11:04:18.788Z,9.48